CheckWX is a tool to help pilots better visualize weather data.  It is not intended as a substitute for an official pre-flight weather briefing.

01:18:40 UTC

KRPH METAR
Graham Municipal Airport
Graham, Texas, USA
Current

44 mins ago

KRPH 240035Z AUTO 31016G21KT 10SM CLR 11/01 A3000 RMK AO2 T01120005
Observed
Feb-24 @ 00:35 UTC
Wind
  • 310° at 16 KTS
  • Gusting to 21 KTS
Visibility
10 SM
Flight Rules
VFR
Cloud Levels
  • Clear skies
Temperature
11°C / 52°F
Dewpoint
C / 34°F
Humidity
50%
Altimeter
30" Hg
Pressure
1015.92 hPa
Previous

1 hour ago

KRPH 240015Z AUTO 31016G24KT 10SM CLR 12/01 A2998 RMK AO2 T01240006
Observed
Feb-24 @ 00:15 UTC
Wind
  • 310° at 16 KTS
  • Gusting to 24 KTS
Visibility
10 SM
Flight Rules
VFR
Cloud Levels
  • Clear skies
Temperature
12°C / 54°F
Dewpoint
C / 34°F
Humidity
47%
Altimeter
29.98" Hg
Pressure
1015.22 hPa
Previous

1 hour ago

KRPH 232355Z AUTO 30016G26KT 10SM CLR 13/00 A2996 RMK AO2 T01310003 10188 20131
Observed
Feb-23 @ 23:55 UTC
Wind
  • 300° at 16 KTS
  • Gusting to 26 KTS
Visibility
10 SM
Flight Rules
VFR
Cloud Levels
  • Clear skies
Temperature
13°C / 55°F
Dewpoint
C / 32°F
Humidity
41%
Altimeter
29.96" Hg
Pressure
1014.52 hPa